AirNav   Duncan Aviation - Near you to keep you flying
 
 756 users online  

MA80 Mundale Airport
Westfield, Massachusetts, USA

GOING TO WESTFIELD?


FAA INFORMATION EFFECTIVE 09 SEPTEMBER 2021

Location

FAA Identifier: MA80
Lat/Long: 42-07-11.3330N 072-48-51.3460W
42-07.188883N 072-48.855767W
42.1198147,-72.8142628
(estimated)
Elevation: 280 ft. / 85 m (estimated)
Variation: 14W (1985)
From city: 3 miles W of WESTFIELD, MA
Time zone: UTC -4 (UTC -5 during Standard Time)
Zip code: 01085

Airport Operations

Airport use: Private use. Permission required prior to landing
Activation date: 07/1965
Control tower: no
ARTCC: BOSTON CENTER
FSS: BURLINGTON FLIGHT SERVICE STATION
Attendance: UNATNDD
Wind indicator: no
Segmented circle: no

Airport Communications

WX ASOS at BAF (5 nm NE): 127.1 (413-568-2267)
WX ASOS at BDL (12 nm SE): 118.15 (860-386-3480)

Nearby radio navigation aids

VOR radial/distance  VOR name  Freq  Var
BAFr254/5.0BARNES VORTAC113.0014W
CTRr163/11.9CHESTER VOR/DME115.1013W
HFDr350/31.1HARTFORD VOR/DME114.9013W

Airport Services

Airframe service: NONE
Powerplant service: NONE

Runway Information

Runway 3/21

Dimensions: 1600 x 50 ft. / 488 x 15 m
Surface: turf
RUNWAY 3  RUNWAY 21
Traffic pattern: leftleft
Obstructions: treestrees

Airport Ownership and Management from official FAA records

Ownership: Privately-owned
Owner: K. F. WARREN
1065 GRANVILLE RD
WESTFIELD, MA 01085
Phone 413-562-4525
Manager: KENNETH F. WARREN
1065 GRANVILLE RD
WESTFIELD, MA 01085
Phone 413-562-4525

Additional Remarks

FOR CD CTC YANKEE APCH AT 860-386-3597

Instrument Procedures

There are no published instrument procedures at MA80.

Some nearby airports with instrument procedures:

KBAF - Westfield-Barnes Regional Airport (5 nm NE)
KBDL - Bradley International Airport (12 nm SE)
KCEF - Westover Air Reserve Base/Metropolitan Airport (13 nm E)
7B2 - Northampton Airport (15 nm NE)
KHFD - Hartford-Brainard Airport (24 nm S)
 
Loc | Ops | Rwys | IFR | FBO | Links
Com | Nav | Svcs | Stats | Notes
Area around MA80 (Mundale Airport)
 
Road maps at: MapQuest Bing Google
 
Aerial photo
No photo
 
Sectional chart

 
Airport distance calculator
Flying to Mundale Airport? Find the distance to fly.

From to MA80

Sunrise and sunset
Times for 24-Sep-2021
 Local
(UTC-4)
 Zulu
(UTC)
Morning civil twilight06:1410:14
Sunrise06:4210:42
Sunset18:4522:45
Evening civil twilight19:1323:13

Current date and time
Zulu (UTC)  24-Sep-2021 04:16:26
Local (UTC-4)  24-Sep-2021 00:16:26
 
METAR
KBAF 
5nm NE 
240353Z AUTO 14008KT 10SM BKN023 OVC027 23/22 A2997 RMK AO2 RAE11 SLP147 P0000 T02330217
KBDL 
13nm SE 
240351Z 15015KT 10SM BKN020 OVC110 24/21 A2998 RMK AO2 SLP150 T02390206
KCEF 
14nm E 
240356Z AUTO 15010KT 10SM FEW017 SCT032 23/20 A2998 RMK AO2 SLP157 T02290200
TAF
KBAF 
5nm NE 
231739Z 2318/2418 15013G21KT P6SM VCSH FEW035 BKN080 FM240000 15010G21KT P6SM -SHRA BKN015 FM240600 14010G22KT 4SM -SHRA BR OVC010 FM241000 18007KT 3SM -SHRA BR OVC008 FM241600 21005KT P6SM VCSH OVC020
KBDL 
13nm SE 
231739Z 2318/2424 16017G25KT P6SM VCSH SCT035 BKN045 FM232300 15011G21KT P6SM VCSH BKN020 FM240200 15012KT P6SM -SHRA BKN015 FM241000 18007KT 4SM BR OVC015 FM241600 22005KT P6SM VCSH OVC025 FM242000 20004KT P6SM VCSH BKN120
KCEF 
14nm E 
240200Z 2402/2508 15010G15KT 9999 BKN015 BKN060 510154 QNH2995INS TEMPO 2402/2405 9000 -SHRA SCT009 BKN015 BECMG 2405/2406 15012KT 9999 -SHRA SCT009 BKN015 510154 QNH2992INS TEMPO 2408/2413 17012G22KT 3200 TSRA BR BKN009 OVC015CB BECMG 2413/2414 31009KT 6000 -RA BR FEW009 OVC015 510153 QNH2996INS BECMG 2415/2416 22007KT 9999 NSW FEW010 BKN035 510353 QNH2999INS BECMG 2502/2503 VRB06KT 4800 BR SCT010 SCT035 QNH3001INS TX23/2402Z TN09/2502Z LAST NO AMDS AFT 2403 NEXT 2411
NOTAMs
Click for the latest NOTAMs
NOTAMs are issued by the DoD/FAA and will open in a separate window not controlled by AirNav.

 

 
 

Would you like to see your business listed on this page?

 If your business provides an interesting product or service to pilots, flight crews, aircraft, or users of the Mundale Airport, you should consider listing it here.  To start the listing process, click on the button below
 
Add a business
 

Other Pages about Mundale Airport

Update a link
 
Copyright © AirNav, LLC. All rights reserved. Privacy Policy  Contact